Time;durP1;ratioP1;P1;durP2;ratioP2;P2;SDS_P1;SDS_P2;PMS_P1;PMS_P2;Temp;Humidity;BMP_temperature;BMP_pressure;BME280_temperature;BME280_humidity;BME280_pressure;Samples;Min_cycle;Max_cycle;Signal;HPM_P1;HPM_P2
2022/09/05 00:02:02;;;;;;;5.80;3.47;;;;;;;;;;5035260;28;20029;-69
2022/09/05 00:05:06;;;;;;;3.03;2.20;;;;;;;;;;5035617;28;20482;-68
2022/09/05 00:08:16;;;;;;;4.03;2.65;;;;;;;;;;5027396;28;20033;-68
2022/09/05 00:11:14;;;;;;;3.30;2.42;;;;;;;;;;5042915;28;20090;-69
2022/09/05 00:14:07;;;;;;;6.55;2.78;;;;;;;;;;5033504;28;20353;-63
2022/09/05 00:17:00;;;;;;;5.13;2.60;;;;;;;;;;5042016;28;20104;-63
2022/09/05 00:20:10;;;;;;;5.82;2.97;;;;;;;;;;5037861;28;20029;-65
2022/09/05 00:23:01;;;;;;;4.72;2.60;;;;;;;;;;5041577;28;20053;-63
2022/09/05 00:25:46;;;;;;;6.90;2.40;;;;;;;;;;5039177;28;20033;-63
2022/09/05 00:28:50;;;;;;;3.85;2.42;;;;;;;;;;5028579;28;20067;-70
2022/09/05 00:31:39;;;;;;;6.55;2.92;;;;;;;;;;5043464;28;20354;-60
2022/09/05 00:34:43;;;;;;;6.50;2.55;;;;;;;;;;5040141;28;20051;-60
2022/09/05 00:37:30;;;;;;;3.80;2.80;;;;;;;;;;5036373;28;20022;-60
2022/09/05 00:40:22;;;;;;;5.82;2.72;;;;;;;;;;5038563;28;20033;-61
2022/09/05 00:43:15;;;;;;;3.78;2.40;;;;;;;;;;5035181;28;20041;-60
2022/09/05 00:46:00;;;;;;;5.10;2.38;;;;;;;;;;5040585;28;20032;-72
2022/09/05 00:49:06;;;;;;;3.83;2.50;;;;;;;;;;5037921;28;20029;-73
2022/09/05 00:51:58;;;;;;;6.28;2.50;;;;;;;;;;5037501;28;20116;-71
2022/09/05 00:54:55;;;;;;;4.05;2.40;;;;;;;;;;5033082;28;20468;-71
2022/09/05 00:57:41;;;;;;;9.32;3.53;;;;;;;;;;5038003;28;20393;-71
2022/09/05 01:00:45;;;;;;;3.35;2.40;;;;;;;;;;5022203;28;20025;-71
2022/09/05 01:03:34;;;;;;;3.70;2.58;;;;;;;;;;5042642;28;20090;-59
2022/09/05 01:06:26;;;;;;;6.03;2.35;;;;;;;;;;5038237;28;20025;-60
2022/09/05 01:09:27;;;;;;;4.10;2.53;;;;;;;;;;5022781;28;20082;-71
2022/09/05 01:12:18;;;;;;;5.38;2.60;;;;;;;;;;5038208;28;20060;-70
2022/09/05 01:15:22;;;;;;;6.97;2.80;;;;;;;;;;5038759;28;20372;-73
2022/09/05 01:18:14;;;;;;;3.72;2.28;;;;;;;;;;5035995;28;20033;-71
2022/09/05 01:21:18;;;;;;;4.75;2.42;;;;;;;;;;5036181;28;20063;-70
2022/09/05 01:24:22;;;;;;;3.80;2.30;;;;;;;;;;5043493;28;20480;-70
2022/09/05 01:27:26;;;;;;;4.85;2.88;;;;;;;;;;5041642;28;20043;-69
2022/09/05 01:30:20;;;;;;;8.32;3.00;;;;;;;;;;5033647;28;20473;-70
2022/09/05 01:33:13;;;;;;;4.60;2.70;;;;;;;;;;5030983;28;20399;-70
2022/09/05 01:36:19;;;;;;;4.05;2.35;;;;;;;;;;5033280;28;20028;-70
2022/09/05 01:39:23;;;;;;;2.85;2.47;;;;;;;;;;5048297;28;20108;-69
2022/09/05 01:42:21;;;;;;;6.13;3.22;;;;;;;;;;5046972;28;20545;-60
2022/09/05 01:45:26;;;;;;;3.50;2.83;;;;;;;;;;5036447;28;20041;-70
2022/09/05 01:48:40;;;;;;;5.60;2.92;;;;;;;;;;5046888;28;20048;-69
2022/09/05 01:51:35;;;;;;;4.75;2.63;;;;;;;;;;5030548;28;20496;-71
2022/09/05 01:54:32;;;;;;;4.25;2.70;;;;;;;;;;5031533;28;20083;-70
2022/09/05 01:57:23;;;;;;;4.78;2.50;;;;;;;;;;5032970;28;20025;-69
2022/09/05 02:00:13;;;;;;;3.75;2.53;;;;;;;;;;5042571;28;20104;-65
2022/09/05 02:03:03;;;;;;;5.13;2.72;;;;;;;;;;5029701;28;20029;-69
2022/09/05 02:05:50;;;;;;;;;;;;;;;;;;5041047;28;20017;-70
2022/09/05 02:08:42;;;;;;;4.82;2.30;;;;;;;;;;5034815;28;20348;-69
2022/09/05 02:11:54;;;;;;;6.55;2.50;;;;;;;;;;5026803;28;20029;-71
2022/09/05 02:14:50;;;;;;;6.00;3.63;;;;;;;;;;5034715;28;20041;-69
2022/09/05 02:17:45;;;;;;;3.85;2.30;;;;;;;;;;5044226;28;20033;-62
2022/09/05 02:20:43;;;;;;;4.28;2.95;;;;;;;;;;5042948;28;20033;-59
2022/09/05 02:23:49;;;;;;;6.13;2.93;;;;;;;;;;5034423;28;20396;-61
2022/09/05 02:26:41;;;;;;;5.95;2.63;;;;;;;;;;5007519;28;20279;-59
2022/09/05 02:29:50;;;;;;;4.82;2.67;;;;;;;;;;5042854;28;20115;-59
2022/09/05 02:32:35;;;;;;;5.00;3.08;;;;;;;;;;5042505;28;20119;-59
2022/09/05 02:35:25;;;;;;;4.63;2.95;;;;;;;;;;5032951;28;20033;-70
2022/09/05 02:38:17;;;;;;;4.95;2.80;;;;;;;;;;5042437;28;20025;-70
2022/09/05 02:41:21;;;;;;;6.10;2.58;;;;;;;;;;5044121;28;20475;-70
2022/09/05 02:44:10;;;;;;;4.78;2.88;;;;;;;;;;5044364;28;20148;-69
2022/09/05 02:47:14;;;;;;;5.30;2.10;;;;;;;;;;5043733;28;20075;-70
2022/09/05 02:50:04;;;;;;;6.13;2.50;;;;;;;;;;5035332;28;20099;-69
2022/09/05 02:52:51;;;;;;;5.18;2.63;;;;;;;;;;5041571;28;20045;-69
2022/09/05 02:55:46;;;;;;;6.40;2.50;;;;;;;;;;5035710;28;20292;-64
2022/09/05 02:58:43;;;;;;;4.45;2.67;;;;;;;;;;5045486;28;20064;-63
2022/09/05 03:01:43;;;;;;;9.50;2.53;;;;;;;;;;5043733;28;20495;-64
2022/09/05 03:04:48;;;;;;;5.05;3.28;;;;;;;;;;5043154;28;20379;-64
2022/09/05 03:07:59;;;;;;;5.75;2.85;;;;;;;;;;5036043;28;20201;-62
2022/09/05 03:11:03;;;;;;;5.55;2.72;;;;;;;;;;5046765;28;20158;-63
2022/09/05 03:14:01;;;;;;;8.05;2.88;;;;;;;;;;5037833;28;20021;-60
2022/09/05 03:16:59;;;;;;;5.10;3.03;;;;;;;;;;5044195;28;20037;-59
2022/09/05 03:19:53;;;;;;;6.20;2.72;;;;;;;;;;5045663;28;20047;-62
2022/09/05 03:22:55;;;;;;;6.05;2.40;;;;;;;;;;5048088;28;20048;-60
2022/09/05 03:25:40;;;;;;;6.18;2.70;;;;;;;;;;5036894;28;20772;-59
2022/09/05 03:28:45;;;;;;;3.95;2.80;;;;;;;;;;5050601;28;20029;-59
2022/09/05 03:31:33;;;;;;;4.97;2.65;;;;;;;;;;5035909;28;20091;-70
2022/09/05 03:34:19;;;;;;;3.88;2.65;;;;;;;;;;5046803;28;20033;-58
2022/09/05 03:37:20;;;;;;;4.88;2.63;;;;;;;;;;5046136;28;20021;-59
2022/09/05 03:40:06;;;;;;;5.25;2.63;;;;;;;;;;5041347;28;20022;-58
2022/09/05 03:42:52;;;;;;;8.95;2.75;;;;;;;;;;5045332;28;20029;-60
2022/09/05 03:45:56;;;;;;;4.32;2.70;;;;;;;;;;5043341;28;20422;-58
2022/09/05 03:48:48;;;;;;;6.85;2.63;;;;;;;;;;5038717;28;20522;-61
2022/09/05 03:51:48;;;;;;;4.93;2.83;;;;;;;;;;5045121;28;20033;-62
2022/09/05 03:54:33;;;;;;;6.38;2.97;;;;;;;;;;5045084;28;20063;-66
2022/09/05 03:57:19;;;;;;;6.93;2.60;;;;;;;;;;5050409;28;20029;-66
2022/09/05 04:00:09;;;;;;;5.47;2.97;;;;;;;;;;5034388;28;20065;-66
2022/09/05 04:03:01;;;;;;;3.58;2.58;;;;;;;;;;5040265;28;20057;-66
2022/09/05 04:05:49;;;;;;;4.18;3.00;;;;;;;;;;5044608;28;20106;-65
2022/09/05 04:08:44;;;;;;;3.80;2.50;;;;;;;;;;5025862;28;20556;-70
2022/09/05 04:11:39;;;;;;;5.30;3.15;;;;;;;;;;5046647;28;20029;-63
2022/09/05 04:14:30;;;;;;;6.07;2.80;;;;;;;;;;5046418;28;20115;-62
2022/09/05 04:17:19;;;;;;;6.60;2.95;;;;;;;;;;5033447;28;20111;-63
2022/09/05 04:20:16;;;;;;;4.22;2.95;;;;;;;;;;5020883;28;20048;-65
2022/09/05 04:23:10;;;;;;;6.60;3.15;;;;;;;;;;5045081;28;20387;-63
2022/09/05 04:26:11;;;;;;;7.72;3.65;;;;;;;;;;5038976;28;20091;-63
2022/09/05 04:29:15;;;;;;;6.95;2.60;;;;;;;;;;5048239;28;20032;-73
2022/09/05 04:32:01;;;;;;;5.03;2.92;;;;;;;;;;5048311;28;20068;-61
2022/09/05 04:35:10;;;;;;;9.90;2.83;;;;;;;;;;5042476;28;20033;-62
2022/09/05 04:38:14;;;;;;;4.13;2.67;;;;;;;;;;5009940;28;20549;-61
2022/09/05 04:41:03;;;;;;;5.80;2.90;;;;;;;;;;5042724;28;20037;-60
2022/09/05 04:43:54;;;;;;;5.00;3.03;;;;;;;;;;5044926;28;20124;-59
2022/09/05 04:46:45;;;;;;;6.57;3.25;;;;;;;;;;5040558;28;20107;-60
2022/09/05 04:49:39;;;;;;;6.32;3.10;;;;;;;;;;5043011;28;20479;-69
2022/09/05 04:52:33;;;;;;;5.40;2.88;;;;;;;;;;5040036;28;20480;-69
2022/09/05 04:55:21;;;;;;;6.40;3.03;;;;;;;;;;5042086;28;20036;-71
2022/09/05 04:58:19;;;;;;;5.05;3.10;;;;;;;;;;5042608;28;20024;-71
2022/09/05 05:01:14;;;;;;;5.43;3.05;;;;;;;;;;5045089;28;20033;-70
2022/09/05 05:04:04;;;;;;;5.00;2.90;;;;;;;;;;5040807;28;20033;-63
2022/09/05 05:06:57;;;;;;;6.45;3.28;;;;;;;;;;5045918;28;20124;-71
2022/09/05 05:09:46;;;;;;;7.00;3.50;;;;;;;;;;5040457;28;20033;-70
2022/09/05 05:12:42;;;;;;;6.90;3.22;;;;;;;;;;5031287;28;20397;-70
2022/09/05 05:15:28;;;;;;;3.33;2.50;;;;;;;;;;5032836;28;20087;-70
2022/09/05 05:18:34;;;;;;;5.47;3.05;;;;;;;;;;5039595;28;20057;-70
2022/09/05 05:21:21;;;;;;;4.75;2.67;;;;;;;;;;5032432;28;20366;-62
2022/09/05 05:24:13;;;;;;;5.88;3.30;;;;;;;;;;5045048;28;20411;-61
2022/09/05 05:27:01;;;;;;;5.63;3.38;;;;;;;;;;5041009;28;20060;-62
2022/09/05 05:29:53;;;;;;;5.65;3.22;;;;;;;;;;5035479;28;20025;-62
2022/09/05 05:32:38;;;;;;;7.07;3.35;;;;;;;;;;5040304;28;20490;-61
2022/09/05 05:35:27;;;;;;;4.75;3.08;;;;;;;;;;5044556;28;20506;-67
2022/09/05 05:38:15;;;;;;;6.22;3.47;;;;;;;;;;5041430;28;20025;-63
2022/09/05 05:41:20;;;;;;;7.55;3.67;;;;;;;;;;5038922;28;20087;-63
2022/09/05 05:44:28;;;;;;;8.07;4.00;;;;;;;;;;5041180;28;20033;-64
2022/09/05 05:47:26;;;;;;;6.77;3.33;;;;;;;;;;5031176;28;20171;-65
2022/09/05 05:50:32;;;;;;;6.03;3.17;;;;;;;;;;5043803;28;20304;-71
2022/09/05 05:53:36;;;;;;;5.97;3.05;;;;;;;;;;5033076;28;20304;-67
2022/09/05 05:56:31;;;;;;;6.63;3.80;;;;;;;;;;5040774;28;20025;-69
2022/09/05 05:59:34;;;;;;;5.88;3.20;;;;;;;;;;5028875;28;20029;-69
2022/09/05 06:02:23;;;;;;;4.55;3.30;;;;;;;;;;5022004;28;20031;-63
2022/09/05 06:05:12;;;;;;;4.93;3.67;;;;;;;;;;5048720;28;20032;-64
2022/09/05 06:07:57;;;;;;;4.53;2.90;;;;;;;;;;5042197;28;20031;-64
2022/09/05 06:10:58;;;;;;;7.03;3.60;;;;;;;;;;5047678;28;20263;-72
2022/09/05 06:13:57;;;;;;;5.82;3.30;;;;;;;;;;5047511;28;20033;-71
2022/09/05 06:16:56;;;;;;;9.30;3.80;;;;;;;;;;5039588;28;20063;-81
2022/09/05 06:20:01;;;;;;;6.07;3.20;;;;;;;;;;5042530;28;20465;-80
2022/09/05 06:22:49;;;;;;;4.22;2.95;;;;;;;;;;5045581;28;20024;-81
2022/09/05 06:25:59;;;;;;;5.28;2.92;;;;;;;;;;5056337;28;20035;-80
2022/09/05 06:28:51;;;;;;;7.38;4.13;;;;;;;;;;5050067;28;20119;-81
2022/09/05 06:31:39;;;;;;;4.50;2.85;;;;;;;;;;5044636;28;20072;-81
2022/09/05 06:34:32;;;;;;;5.13;2.92;;;;;;;;;;5054530;28;20387;-82
2022/09/05 06:37:37;;;;;;;4.07;2.97;;;;;;;;;;5041138;28;20021;-77
2022/09/05 06:40:25;;;;;;;4.47;2.63;;;;;;;;;;5040849;28;20036;-78
2022/09/05 06:43:30;;;;;;;3.40;2.57;;;;;;;;;;5046315;28;20033;-78
2022/09/05 06:46:25;;;;;;;8.10;3.28;;;;;;;;;;5052233;28;20071;-78
2022/09/05 06:49:24;;;;;;;7.50;3.30;;;;;;;;;;5050607;28;20033;-75
2022/09/05 06:52:29;;;;;;;9.95;2.88;;;;;;;;;;5041023;28;20558;-77
2022/09/05 06:55:33;;;;;;;7.82;3.40;;;;;;;;;;5039782;28;20033;-72
2022/09/05 06:58:21;;;;;;;8.68;3.40;;;;;;;;;;5035996;28;20105;-71
2022/09/05 07:01:08;;;;;;;5.97;2.53;;;;;;;;;;5019994;28;20124;-71
2022/09/05 07:04:03;;;;;;;5.20;2.67;;;;;;;;;;5047168;28;20087;-71
2022/09/05 07:06:54;;;;;;;6.50;2.85;;;;;;;;;;5049229;28;20039;-70
2022/09/05 07:09:52;;;;;;;6.07;2.70;;;;;;;;;;5051966;28;20482;-71
2022/09/05 07:12:49;;;;;;;6.40;2.60;;;;;;;;;;5052649;28;20029;-70
2022/09/05 07:15:41;;;;;;;5.15;2.88;;;;;;;;;;5025225;28;20033;-72
2022/09/05 07:18:55;;;;;;;6.22;2.95;;;;;;;;;;5039580;28;20477;-71
2022/09/05 07:21:44;;;;;;;4.18;2.42;;;;;;;;;;5039843;28;20038;-73
2022/09/05 07:24:32;;;;;;;5.17;2.57;;;;;;;;;;5033341;28;20037;-72
2022/09/05 07:27:28;;;;;;;3.63;2.25;;;;;;;;;;5047208;28;20033;-73
2022/09/05 07:30:16;;;;;;;6.30;2.55;;;;;;;;;;5030817;28;20120;-73
2022/09/05 07:33:03;;;;;;;3.78;2.30;;;;;;;;;;5044764;28;20032;-75
2022/09/05 07:35:49;;;;;;;8.60;3.30;;;;;;;;;;5048912;28;20037;-73
2022/09/05 07:38:36;;;;;;;6.18;2.40;;;;;;;;;;5053219;28;20036;-72
2022/09/05 07:41:25;;;;;;;4.75;2.47;;;;;;;;;;5043568;28;20068;-72
2022/09/05 07:44:18;;;;;;;4.70;2.50;;;;;;;;;;5049105;28;20071;-71
2022/09/05 07:47:10;;;;;;;5.88;2.58;;;;;;;;;;5053419;28;20103;-72
2022/09/05 07:49:59;;;;;;;4.80;2.60;;;;;;;;;;5049513;28;20040;-71
2022/09/05 07:52:45;;;;;;;4.47;2.38;;;;;;;;;;5045363;28;20045;-71
2022/09/05 07:55:36;;;;;;;3.25;2.35;;;;;;;;;;5053219;28;20025;-71
2022/09/05 07:58:26;;;;;;;8.63;2.60;;;;;;;;;;5053412;28;20080;-71
2022/09/05 08:01:13;;;;;;;3.33;2.28;;;;;;;;;;5052606;28;20079;-70
2022/09/05 08:03:58;;;;;;;6.25;2.33;;;;;;;;;;5052343;28;20028;-71
2022/09/05 08:06:44;;;;;;;9.25;2.50;;;;;;;;;;5050860;28;20087;-72
2022/09/05 08:09:31;;;;;;;3.70;2.20;;;;;;;;;;5041827;28;20107;-74
2022/09/05 08:12:19;;;;;;;5.85;2.40;;;;;;;;;;5050806;28;20028;-78
2022/09/05 08:15:06;;;;;;;5.50;1.70;;;;;;;;;;5038678;28;20167;-77
2022/09/05 08:18:10;;;;;;;4.97;2.08;;;;;;;;;;5043094;28;20296;-78
2022/09/05 08:21:00;;;;;;;6.32;2.17;;;;;;;;;;5051846;28;20032;-78
2022/09/05 08:23:53;;;;;;;6.10;2.58;;;;;;;;;;5052369;28;20037;-77
2022/09/05 08:26:43;;;;;;;8.05;2.00;;;;;;;;;;5050393;28;20380;-79
2022/09/05 08:29:40;;;;;;;5.05;2.28;;;;;;;;;;5040692;28;20032;-82
2022/09/05 08:32:48;;;;;;;4.28;1.70;;;;;;;;;;5051462;28;20036;-82
2022/09/05 08:35:42;;;;;;;7.38;2.60;;;;;;;;;;5051945;28;20454;-80
2022/09/05 08:38:31;;;;;;;5.18;2.05;;;;;;;;;;5040879;28;20033;-81
2022/09/05 08:41:21;;;;;;;8.15;1.92;;;;;;;;;;5052898;28;20380;-81
2022/09/05 08:44:18;;;;;;;4.03;2.10;;;;;;;;;;5037075;28;20033;-72
2022/09/05 08:47:11;;;;;;;6.90;1.95;;;;;;;;;;5051404;28;20061;-83
2022/09/05 08:50:08;;;;;;;4.15;2.10;;;;;;;;;;5052389;28;20029;-83
2022/09/05 08:53:12;;;;;;;3.83;2.00;;;;;;;;;;5049451;28;20068;-83
2022/09/05 08:56:09;;;;;;;6.18;2.13;;;;;;;;;;5041975;28;20040;-83
2022/09/05 08:59:06;;;;;;;6.20;2.33;;;;;;;;;;5051739;28;20060;-82
2022/09/05 09:02:11;;;;;;;4.97;2.08;;;;;;;;;;5046441;28;20075;-71
2022/09/05 09:05:06;;;;;;;5.90;1.77;;;;;;;;;;5049696;28;20051;-77
2022/09/05 09:08:01;;;;;;;3.58;1.80;;;;;;;;;;5037968;28;20036;-82
2022/09/05 09:10:52;;;;;;;5.55;2.42;;;;;;;;;;5037088;28;20031;-83
2022/09/05 09:13:37;;;;;;;6.53;1.90;;;;;;;;;;5050844;28;20032;-83
2022/09/05 09:16:36;;;;;;;3.95;1.70;;;;;;;;;;5035266;28;20035;-82
2022/09/05 09:19:21;;;;;;;;;;;;;;;;;;5037396;28;20037;-83
2022/09/05 09:22:13;;;;;;;3.63;2.13;;;;;;;;;;5051041;28;19917;-73
2022/09/05 09:25:12;;;;;;;6.55;2.20;;;;;;;;;;5051684;28;20453;-73
2022/09/05 09:28:00;;;;;;;4.47;1.90;;;;;;;;;;5029858;28;20460;-73
2022/09/05 09:30:46;;;;;;;;;;;;;;;;;;5048105;28;20076;-72
2022/09/05 09:33:52;;;;;;;3.70;1.70;;;;;;;;;;5025294;28;19945;-72
2022/09/05 09:36:43;;;;;;;4.32;1.65;;;;;;;;;;5029006;28;20037;-72
2022/09/05 09:39:32;;;;;;;4.20;1.85;;;;;;;;;;5049300;28;20029;-73
2022/09/05 09:42:28;;;;;;;4.47;1.45;;;;;;;;;;5049350;28;20086;-74
2022/09/05 09:45:24;;;;;;;3.55;1.85;;;;;;;;;;5048672;28;20068;-73
2022/09/05 09:48:09;;;;;;;3.72;1.60;;;;;;;;;;5046698;28;20091;-73
2022/09/05 09:51:13;;;;;;;3.97;1.83;;;;;;;;;;5050688;28;20464;-73
2022/09/05 09:54:07;;;;;;;3.90;1.75;;;;;;;;;;5042568;28;20017;-73
2022/09/05 09:57:11;;;;;;;6.03;2.15;;;;;;;;;;5039042;28;20523;-74
2022/09/05 10:00:10;;;;;;;3.92;2.20;;;;;;;;;;5035323;28;20241;-73
2022/09/05 10:03:22;;;;;;;1.90;1.65;;;;;;;;;;5042581;28;20047;-74
2022/09/05 10:06:29;;;;;;;2.83;1.60;;;;;;;;;;5039846;28;20044;-75
2022/09/05 10:09:33;;;;;;;2.88;1.73;;;;;;;;;;5039216;28;20041;-73
2022/09/05 10:12:31;;;;;;;1.63;1.50;;;;;;;;;;5049349;28;20033;-73
2022/09/05 10:15:28;;;;;;;1.70;1.60;;;;;;;;;;5050595;28;20471;-75
2022/09/05 10:18:16;;;;;;;5.35;1.77;;;;;;;;;;5042232;28;20409;-72
2022/09/05 10:21:02;;;;;;;3.33;1.40;;;;;;;;;;5037539;28;20436;-73
2022/09/05 10:23:55;;;;;;;3.42;1.42;;;;;;;;;;5020783;28;20044;-73
2022/09/05 10:26:56;;;;;;;2.20;1.90;;;;;;;;;;5040708;28;20036;-73
2022/09/05 10:29:44;;;;;;;2.35;1.52;;;;;;;;;;5038933;28;20480;-73
2022/09/05 10:32:42;;;;;;;1.85;1.75;;;;;;;;;;5033178;28;20061;-73
2022/09/05 10:35:34;;;;;;;1.52;1.15;;;;;;;;;;5043691;28;20503;-77
2022/09/05 10:38:20;;;;;;;2.17;1.48;;;;;;;;;;5039034;28;20033;-78
2022/09/05 10:41:09;;;;;;;4.40;1.40;;;;;;;;;;5040352;28;20083;-78
2022/09/05 10:44:01;;;;;;;3.40;1.67;;;;;;;;;;5043400;28;20095;-78
2022/09/05 10:46:46;;;;;;;3.22;1.50;;;;;;;;;;5045353;28;20026;-77
2022/09/05 10:49:39;;;;;;;1.92;1.48;;;;;;;;;;5043423;28;20033;-77
2022/09/05 10:52:35;;;;;;;1.85;1.60;;;;;;;;;;5051129;28;20375;-74
2022/09/05 10:55:39;;;;;;;4.65;2.70;;;;;;;;;;5049831;28;20474;-78
2022/09/05 10:58:25;;;;;;;2.22;1.45;;;;;;;;;;5046838;28;20476;-72
2022/09/05 11:01:24;;;;;;;5.43;1.60;;;;;;;;;;5048944;28;20128;-72
2022/09/05 11:04:12;;;;;;;1.58;1.38;;;;;;;;;;5053508;28;20033;-72
2022/09/05 11:07:09;;;;;;;3.67;2.17;;;;;;;;;;5049845;28;20029;-71
2022/09/05 11:10:03;;;;;;;2.08;1.20;;;;;;;;;;5045701;28;20191;-71
2022/09/05 11:13:00;;;;;;;4.22;1.60;;;;;;;;;;5050457;28;20033;-72
2022/09/05 11:15:54;;;;;;;4.50;3.53;;;;;;;;;;5052026;28;20032;-72
2022/09/05 11:19:01;;;;;;;4.28;1.70;;;;;;;;;;5024404;28;20396;-72
2022/09/05 11:21:46;;;;;;;7.63;5.32;;;;;;;;;;5053494;28;20033;-71
2022/09/05 11:24:34;;;;;;;6.22;2.80;;;;;;;;;;5052091;28;20444;-72
2022/09/05 11:27:26;;;;;;;5.70;4.03;;;;;;;;;;5045638;28;20036;-72
2022/09/05 11:30:16;;;;;;;2.10;1.63;;;;;;;;;;5044808;28;20064;-72
2022/09/05 11:33:16;;;;;;;2.47;1.90;;;;;;;;;;5048510;28;20032;-77
2022/09/05 11:36:14;;;;;;;7.13;1.90;;;;;;;;;;5024903;28;20025;-77
2022/09/05 11:39:09;;;;;;;2.80;1.58;;;;;;;;;;5050446;28;20083;-77
2022/09/05 11:41:54;;;;;;;3.55;2.60;;;;;;;;;;5040846;28;20094;-78
2022/09/05 11:44:52;;;;;;;3.65;2.83;;;;;;;;;;5049253;28;20040;-77
2022/09/05 11:47:37;;;;;;;8.68;5.95;;;;;;;;;;5050265;28;20033;-71
2022/09/05 11:50:29;;;;;;;10.82;8.80;;;;;;;;;;5046474;28;20030;-73
2022/09/05 11:53:29;;;;;;;5.75;2.78;;;;;;;;;;5058781;28;20046;-80
2022/09/05 11:56:18;;;;;;;3.28;2.00;;;;;;;;;;5057819;28;20035;-79
2022/09/05 11:59:22;;;;;;;3.90;3.00;;;;;;;;;;5043339;28;20033;-78
2022/09/05 12:02:26;;;;;;;2.65;1.92;;;;;;;;;;5059414;28;20032;-80
2022/09/05 12:05:12;;;;;;;2.60;1.75;;;;;;;;;;5046795;28;20837;-80
2022/09/05 12:07:59;;;;;;;2.83;1.77;;;;;;;;;;5053378;28;20033;-73
2022/09/05 12:11:04;;;;;;;2.58;1.92;;;;;;;;;;5051991;28;20032;-72
2022/09/05 12:14:08;;;;;;;3.58;1.92;;;;;;;;;;5035777;28;20021;-72
2022/09/05 12:16:54;;;;;;;2.88;2.13;;;;;;;;;;5037368;28;20044;-70
2022/09/05 12:19:49;;;;;;;2.63;1.77;;;;;;;;;;5026965;28;20067;-73
2022/09/05 12:22:57;;;;;;;4.13;1.92;;;;;;;;;;5045559;28;20049;-72
2022/09/05 12:25:53;;;;;;;4.45;1.70;;;;;;;;;;5008702;28;20407;-77
2022/09/05 12:28:42;;;;;;;3.90;1.90;;;;;;;;;;5045296;28;20051;-72
2022/09/05 12:31:37;;;;;;;4.03;2.05;;;;;;;;;;5032439;28;20017;-72
2022/09/05 12:34:35;;;;;;;5.57;2.50;;;;;;;;;;5037923;28;20025;-73
2022/09/05 12:37:21;;;;;;;3.35;2.00;;;;;;;;;;5022575;28;20037;-72
2022/09/05 12:40:29;;;;;;;4.07;1.98;;;;;;;;;;5040882;28;20066;-72
2022/09/05 12:43:15;;;;;;;;;;;;;;;;;;5047308;28;20052;-72
2022/09/05 12:46:06;;;;;;;1.60;1.50;;;;;;;;;;5051047;28;20011;-72
2022/09/05 12:49:04;;;;;;;4.32;2.40;;;;;;;;;;5050322;28;20027;-72
2022/09/05 12:51:58;;;;;;;3.17;1.75;;;;;;;;;;5032072;28;20033;-73
2022/09/05 12:54:47;;;;;;;3.40;1.80;;;;;;;;;;5045827;28;20492;-72
2022/09/05 12:57:33;;;;;;;2.92;1.65;;;;;;;;;;5032210;28;20033;-73
2022/09/05 13:00:22;;;;;;;1.88;1.42;;;;;;;;;;5048480;28;20082;-72
2022/09/05 13:03:13;;;;;;;2.30;1.70;;;;;;;;;;5047026;28;20041;-75
2022/09/05 13:06:09;;;;;;;2.08;1.77;;;;;;;;;;5051240;28;20151;-70
2022/09/05 13:09:07;;;;;;;3.38;1.75;;;;;;;;;;5031931;28;20033;-71
2022/09/05 13:11:53;;;;;;;2.83;1.73;;;;;;;;;;5047446;28;20035;-71
2022/09/05 13:14:49;;;;;;;2.80;1.60;;;;;;;;;;5041510;28;20026;-70
2022/09/05 13:17:41;;;;;;;3.75;1.80;;;;;;;;;;5015977;28;20025;-71
2022/09/05 13:20:33;;;;;;;4.80;1.90;;;;;;;;;;5032198;28;20032;-72
2022/09/05 13:23:31;;;;;;;2.08;1.88;;;;;;;;;;5043794;28;20345;-74
2022/09/05 13:26:22;;;;;;;2.97;2.05;;;;;;;;;;5042371;28;20420;-75
2022/09/05 13:29:12;;;;;;;3.45;2.20;;;;;;;;;;5036433;28;20032;-74
2022/09/05 13:32:04;;;;;;;3.70;1.90;;;;;;;;;;5050672;28;20091;-76
2022/09/05 13:34:54;;;;;;;3.08;1.80;;;;;;;;;;5039682;28;20080;-73
2022/09/05 13:37:46;;;;;;;2.08;1.65;;;;;;;;;;5050243;28;20029;-75
2022/09/05 13:40:41;;;;;;;4.75;1.80;;;;;;;;;;5044758;28;20465;-74
2022/09/05 13:43:39;;;;;;;5.28;2.22;;;;;;;;;;5047802;28;20037;-72
2022/09/05 13:46:43;;;;;;;3.53;1.67;;;;;;;;;;5036793;28;20075;-71
2022/09/05 13:49:35;;;;;;;2.78;1.70;;;;;;;;;;5051105;28;20037;-72
2022/09/05 13:52:24;;;;;;;2.80;1.92;;;;;;;;;;5040636;28;20033;-72
2022/09/05 13:55:16;;;;;;;5.32;2.08;;;;;;;;;;5032954;28;20116;-72
2022/09/05 13:58:20;;;;;;;3.00;1.52;;;;;;;;;;5049639;28;20033;-77
2022/09/05 14:01:10;;;;;;;3.95;1.85;;;;;;;;;;5040864;28;20033;-79
2022/09/05 14:03:59;;;;;;;2.05;1.63;;;;;;;;;;5050618;28;20044;-78
2022/09/05 14:06:55;;;;;;;2.55;1.77;;;;;;;;;;5036599;28;20148;-77
2022/09/05 14:09:50;;;;;;;2.85;1.73;;;;;;;;;;5051931;28;20072;-78
2022/09/05 14:12:40;;;;;;;5.63;2.10;;;;;;;;;;5049505;28;20037;-77
2022/09/05 14:15:26;;;;;;;2.00;1.65;;;;;;;;;;5049978;28;20340;-78
2022/09/05 14:18:16;;;;;;;2.75;1.90;;;;;;;;;;5050165;28;20029;-72
2022/09/05 14:21:14;;;;;;;4.30;2.03;;;;;;;;;;5043203;28;20059;-70
2022/09/05 14:24:03;;;;;;;2.70;1.80;;;;;;;;;;5047655;28;20435;-71
2022/09/05 14:26:49;;;;;;;1.70;1.60;;;;;;;;;;5026036;28;20668;-70
2022/09/05 14:29:40;;;;;;;2.95;1.90;;;;;;;;;;5023140;28;20049;-70
2022/09/05 14:32:31;;;;;;;2.63;1.63;;;;;;;;;;5028872;28;20025;-72
2022/09/05 14:35:20;;;;;;;3.83;1.77;;;;;;;;;;5038026;28;20026;-73
2022/09/05 14:38:11;;;;;;;4.28;1.90;;;;;;;;;;5043251;28;20033;-73
2022/09/05 14:41:15;;;;;;;3.20;1.95;;;;;;;;;;5046633;28;20082;-74
2022/09/05 14:44:04;;;;;;;4.05;1.80;;;;;;;;;;5047932;28;20032;-73
2022/09/05 14:47:01;;;;;;;2.13;1.80;;;;;;;;;;5040587;28;20091;-73
2022/09/05 14:50:06;;;;;;;3.75;1.85;;;;;;;;;;5050846;28;20029;-73
2022/09/05 14:53:05;;;;;;;2.22;1.90;;;;;;;;;;5021813;28;20041;-74
2022/09/05 14:55:52;;;;;;;3.45;1.67;;;;;;;;;;5039300;28;20127;-72
2022/09/05 14:58:38;;;;;;;3.30;2.05;;;;;;;;;;5052617;28;20090;-72
2022/09/05 15:01:29;;;;;;;2.90;1.70;;;;;;;;;;5044642;28;20033;-73
2022/09/05 15:04:17;;;;;;;3.05;1.60;;;;;;;;;;5042644;28;20100;-72
2022/09/05 15:07:04;;;;;;;3.45;2.70;;;;;;;;;;5053328;28;20148;-71
2022/09/05 15:10:07;;;;;;;2.38;1.67;;;;;;;;;;5053319;28;20090;-71
2022/09/05 15:12:58;;;;;;;2.88;2.08;;;;;;;;;;5048749;28;20120;-73
2022/09/05 15:15:49;;;;;;;4.20;1.90;;;;;;;;;;5033514;28;20033;-73
2022/09/05 15:18:40;;;;;;;3.22;1.70;;;;;;;;;;5047855;28;20037;-75
2022/09/05 15:21:27;;;;;;;3.67;2.33;;;;;;;;;;5050909;28;20388;-74
2022/09/05 15:24:19;;;;;;;4.57;2.40;;;;;;;;;;5036257;28;20033;-74
2022/09/05 15:27:04;;;;;;;3.10;1.67;;;;;;;;;;5043596;28;20036;-75
2022/09/05 15:29:53;;;;;;;3.58;1.70;;;;;;;;;;5027204;28;20524;-74
2022/09/05 15:32:41;;;;;;;4.05;1.77;;;;;;;;;;5048030;28;20032;-77
2022/09/05 15:35:35;;;;;;;1.88;1.60;;;;;;;;;;5032834;28;20061;-78
2022/09/05 15:38:34;;;;;;;3.30;2.10;;;;;;;;;;5039850;28;20241;-76
2022/09/05 15:41:21;;;;;;;5.13;1.70;;;;;;;;;;5034244;28;20033;-77
2022/09/05 15:44:10;;;;;;;4.15;1.77;;;;;;;;;;5048001;28;20029;-77
2022/09/05 15:47:03;;;;;;;2.10;1.90;;;;;;;;;;5052851;28;20052;-79
2022/09/05 15:49:49;;;;;;;5.78;2.30;;;;;;;;;;5048484;28;20041;-74
2022/09/05 15:52:46;;;;;;;4.15;1.88;;;;;;;;;;5019520;28;20040;-72
2022/09/05 15:55:42;;;;;;;4.30;1.95;;;;;;;;;;5031919;28;20047;-72
2022/09/05 15:58:30;;;;;;;4.03;1.77;;;;;;;;;;5035855;28;20022;-72
2022/09/05 16:01:17;;;;;;;4.00;1.95;;;;;;;;;;5047492;28;20391;-72
2022/09/05 16:04:07;;;;;;;3.45;2.30;;;;;;;;;;5038114;28;20033;-74
2022/09/05 16:06:54;;;;;;;5.55;1.60;;;;;;;;;;5037990;28;20396;-65
2022/09/05 16:09:41;;;;;;;2.60;1.90;;;;;;;;;;5052301;28;20033;-66
2022/09/05 16:12:47;;;;;;;3.40;1.90;;;;;;;;;;5037364;28;20048;-65
2022/09/05 16:15:37;;;;;;;3.10;1.60;;;;;;;;;;5050243;28;20036;-66
2022/09/05 16:18:25;;;;;;;2.88;2.15;;;;;;;;;;5049974;28;20043;-67
2022/09/05 16:21:12;;;;;;;6.95;2.10;;;;;;;;;;5044604;28;20109;-66
2022/09/05 16:24:09;;;;;;;3.55;1.70;;;;;;;;;;5049292;28;20041;-64
2022/09/05 16:26:57;;;;;;;4.65;2.17;;;;;;;;;;5047053;28;20029;-65
2022/09/05 16:29:46;;;;;;;3.65;2.17;;;;;;;;;;5050576;28;20783;-65
2022/09/05 16:32:35;;;;;;;4.05;2.13;;;;;;;;;;5051278;28;20376;-66
2022/09/05 16:35:21;;;;;;;4.10;2.17;;;;;;;;;;5039046;28;20082;-65
2022/09/05 16:38:19;;;;;;;3.80;1.92;;;;;;;;;;5037081;28;20055;-64
2022/09/05 16:41:07;;;;;;;3.45;2.03;;;;;;;;;;5046590;28;20116;-65
2022/09/05 16:43:59;;;;;;;4.15;2.95;;;;;;;;;;5038967;28;20484;-71
2022/09/05 16:46:51;;;;;;;5.95;1.77;;;;;;;;;;5040287;28;20032;-66
2022/09/05 16:49:50;;;;;;;2.78;2.17;;;;;;;;;;5051241;28;20029;-67
2022/09/05 16:52:56;;;;;;;7.45;2.38;;;;;;;;;;5028275;28;20024;-65
2022/09/05 16:55:53;;;;;;;4.15;2.35;;;;;;;;;;5047045;28;20434;-65
2022/09/05 16:58:38;;;;;;;5.07;2.38;;;;;;;;;;5042626;28;20028;-65
2022/09/05 17:01:43;;;;;;;3.85;2.45;;;;;;;;;;5024398;28;20024;-75
2022/09/05 17:04:49;;;;;;;5.05;1.83;;;;;;;;;;5043936;28;20034;-71
2022/09/05 17:07:49;;;;;;;4.85;2.78;;;;;;;;;;5018890;28;20045;-73
2022/09/05 17:10:45;;;;;;;3.75;2.60;;;;;;;;;;5039825;28;20483;-71
2022/09/05 17:13:40;;;;;;;6.10;2.60;;;;;;;;;;5044724;28;20369;-72
2022/09/05 17:16:31;;;;;;;4.32;2.50;;;;;;;;;;5042002;28;20460;-71
2022/09/05 17:19:22;;;;;;;4.60;2.50;;;;;;;;;;5045087;28;20502;-70
2022/09/05 17:22:11;;;;;;;5.13;2.63;;;;;;;;;;5038285;28;20021;-67
2022/09/05 17:24:59;;;;;;;8.30;3.57;;;;;;;;;;5035901;28;20212;-65